Time;durP1;ratioP1;P1;durP2;ratioP2;P2;SDS_P1;SDS_P2;PMS_P1;PMS_P2;Temp;Humidity;BMP_temperature;BMP_pressure;BME280_temperature;BME280_humidity;BME280_pressure;Samples;Min_cycle;Max_cycle;Signal;HPM_P1;HPM_P2
2023/10/14 20:38:01;;;;;;;7.30;4.10;;;;;;;15.69;61.61;99864.39;101589;1292;600954;-69
2023/10/14 20:40:31;;;;;;;6.40;3.60;;;;;;;15.64;61.92;99869.15;103481;1267;59371;-70
2023/10/14 20:43:00;;;;;;;7.80;4.10;;;;;;;15.62;62.15;99868.63;104249;1275;58787;-70
2023/10/14 20:45:30;;;;;;;7.40;3.70;;;;;;;15.60;62.21;99867.59;103569;1272;63749;-70
2023/10/14 20:54:57;;;;;;;8.00;4.30;;;;;;;15.50;63.13;99862.43;101823;1294;600275;-69
2023/10/14 20:58:03;;;;;;;7.70;3.90;;;;;;;15.49;63.35;99859.77;101380;1291;607141;-69
2023/10/14 21:00:31;;;;;;;7.00;3.80;;;;;;;15.42;63.45;99856.09;103592;1271;59369;-70
2023/10/14 21:03:07;;;;;;;8.30;3.80;;;;;;;15.39;63.74;99852.17;104361;1257;59425;-70
2023/10/14 21:05:46;;;;;;;9.50;4.30;;;;;;;15.35;63.88;99847.75;104039;1265;63474;-70
2023/10/14 21:08:14;;;;;;;7.40;4.10;;;;;;;15.32;64.11;99843.18;104120;1262;59292;-70
2023/10/14 21:10:48;;;;;;;5.60;3.80;;;;;;;15.29;64.42;99843.15;103884;1263;210154;-70
2023/10/14 21:13:20;;;;;;;7.90;4.50;;;;;;;15.25;64.75;99846.34;104248;1257;61170;-69
2023/10/14 21:15:55;;;;;;;7.20;4.30;;;;;;;15.21;64.83;99847.36;104214;1257;59402;-70
2023/10/14 21:18:25;;;;;;;6.60;4.20;;;;;;;15.16;65.29;99847.89;104371;1257;64650;-70
2023/10/14 21:20:54;;;;;;;8.10;3.80;;;;;;;15.11;65.55;99847.72;104304;1257;58952;-70
2023/10/14 21:23:22;;;;;;;8.10;4.00;;;;;;;15.07;65.84;99852.40;104193;1256;62855;-71
2023/10/14 21:25:56;;;;;;;10.90;4.50;;;;;;;15.04;66.34;99850.63;104203;1257;59624;-69
2023/10/14 21:28:24;;;;;;;6.00;4.20;;;;;;;15.01;66.44;99848.66;106495;1257;59593;-69
2023/10/14 21:30:51;;;;;;;9.80;4.60;;;;;;;14.97;66.82;99841.38;106470;1257;64304;-69
2023/10/14 21:33:18;;;;;;;6.20;4.10;;;;;;;14.94;67.10;99839.06;104221;1258;58756;-69
2023/10/14 21:35:46;;;;;;;7.70;4.20;;;;;;;14.91;67.51;99836.93;106576;1257;62607;-69
2023/10/14 21:38:14;;;;;;;8.10;4.50;;;;;;;14.88;67.81;99833.31;106656;1257;59746;-70
2023/10/14 21:40:48;;;;;;;8.00;3.90;;;;;;;14.86;68.05;99836.39;106682;1257;59167;-70
2023/10/14 21:43:17;;;;;;;7.50;4.20;;;;;;;14.84;68.29;99837.84;106589;1257;63284;-71
2023/10/14 21:45:45;;;;;;;7.00;3.80;;;;;;;14.83;68.60;99831.42;106683;1256;59532;-68
2023/10/14 21:48:12;;;;;;;9.10;4.50;;;;;;;14.81;68.99;99829.64;104241;1257;64135;-69
2023/10/14 21:50:39;;;;;;;6.00;4.10;;;;;;;14.79;69.19;99822.92;104295;1257;59695;-70
2023/10/14 21:53:07;;;;;;;5.80;3.50;;;;;;;14.77;69.38;99818.34;104451;1260;59329;-71
2023/10/14 21:55:36;;;;;;;6.50;4.20;;;;;;;14.76;69.61;99816.91;104230;1260;64388;-71
2023/10/14 21:58:07;;;;;;;11.60;4.50;;;;;;;14.74;69.83;99813.05;104207;1256;59781;-71
2023/10/14 22:00:39;;;;;;;7.60;4.50;;;;;;;14.72;70.30;99810.06;104303;1257;63901;-69
2023/10/14 22:03:07;;;;;;;8.80;4.60;;;;;;;14.70;70.55;99802.86;104066;1257;59682;-71
2023/10/14 22:05:36;;;;;;;7.00;4.10;;;;;;;14.69;70.73;99805.08;104286;1260;59698;-70
2023/10/14 22:08:17;;;;;;;8.00;4.10;;;;;;;14.67;71.12;99805.43;104214;1263;64440;-70
2023/10/14 22:10:44;;;;;;;9.60;4.20;;;;;;;14.66;71.30;99803.10;104381;1257;67121;-70
2023/10/14 22:13:11;;;;;;;8.80;4.30;;;;;;;14.65;71.55;99800.80;104883;1256;63986;-70
2023/10/14 22:15:39;;;;;;;7.40;4.30;;;;;;;14.65;71.64;99799.48;104165;1263;59634;-70
2023/10/14 22:18:07;;;;;;;7.30;4.40;;;;;;;14.63;71.80;99799.14;104026;1259;59736;-70
2023/10/14 22:20:34;;;;;;;8.20;3.90;;;;;;;14.61;72.10;99793.63;104152;1261;64273;-70
2023/10/14 22:23:06;;;;;;;9.70;4.60;;;;;;;14.59;72.28;99789.45;104145;1257;59279;-69
2023/10/14 22:25:33;;;;;;;8.10;4.70;;;;;;;14.58;72.60;99787.91;105389;1256;63928;-70
2023/10/14 22:28:01;;;;;;;7.50;4.50;;;;;;;14.57;72.79;99785.90;104360;1257;59730;-70
2023/10/14 22:30:28;;;;;;;11.10;5.90;;;;;;;14.56;73.01;99789.41;104280;1257;59834;-70
2023/10/14 22:32:56;;;;;;;7.70;5.30;;;;;;;14.55;73.31;99797.25;104288;1261;63092;-69
2023/10/14 22:35:24;;;;;;;9.50;5.10;;;;;;;14.55;73.52;99801.90;104303;1256;59602;-70
2023/10/14 22:37:52;;;;;;;9.00;5.80;;;;;;;14.55;73.68;99808.11;104327;1257;64055;-69
2023/10/14 22:40:23;;;;;;;9.90;6.90;;;;;;;14.55;73.77;99808.62;104265;1263;59494;-70
2023/10/14 22:42:51;;;;;;;13.40;6.90;;;;;;;14.54;73.93;99810.64;104313;1260;59698;-70
2023/10/14 22:45:19;;;;;;;11.00;7.20;;;;;;;14.54;73.94;99805.55;104229;1257;63218;-70
2023/10/14 22:47:46;;;;;;;11.50;7.60;;;;;;;14.53;74.11;99802.11;104210;1263;59630;-70
2023/10/14 22:50:15;;;;;;;12.30;7.50;;;;;;;14.51;74.12;99795.02;104437;1257;64102;-70
2023/10/14 22:52:44;;;;;;;9.90;6.70;;;;;;;14.50;74.20;99794.90;106380;1257;59278;-70
2023/10/14 22:55:11;;;;;;;13.40;6.30;;;;;;;14.46;74.25;99791.29;104289;1263;59520;-70
2023/10/14 22:57:44;;;;;;;7.90;5.30;;;;;;;14.45;74.34;99789.30;104329;1257;63275;-70
2023/10/14 23:00:13;;;;;;;11.50;4.80;;;;;;;14.44;74.48;99788.36;104515;1257;59768;-70
2023/10/14 23:02:44;;;;;;;6.60;4.30;;;;;;;14.42;74.63;99784.96;104267;1264;62706;-70
2023/10/14 23:05:20;;;;;;;10.00;4.90;;;;;;;14.40;74.72;99779.52;104315;1256;59721;-70
2023/10/14 23:07:48;;;;;;;9.00;4.50;;;;;;;14.39;74.85;99779.98;104213;1256;59494;-70
2023/10/14 23:10:37;;;;;;;7.00;4.40;;;;;;;14.41;75.14;99776.58;101718;1293;600312;-69
2023/10/14 23:13:04;;;;;;;6.20;4.40;;;;;;;14.41;75.21;99773.11;103486;1267;59271;-70
2023/10/14 23:15:32;;;;;;;10.30;5.00;;;;;;;14.40;75.36;99774.73;103548;1267;59093;-70
2023/10/14 23:18:02;;;;;;;6.90;4.40;;;;;;;14.39;75.38;99771.15;103520;1265;62060;-70
2023/10/14 23:20:30;;;;;;;9.20;5.30;;;;;;;14.38;75.37;99767.36;103741;1266;58687;-70
2023/10/14 23:22:57;;;;;;;8.00;4.60;;;;;;;14.36;75.46;99767.73;103563;1266;62565;-70
2023/10/14 23:25:26;;;;;;;9.90;5.00;;;;;;;14.35;75.45;99766.66;103425;1264;176641;-70
2023/10/14 23:27:55;;;;;;;9.30;4.90;;;;;;;14.32;75.48;99770.42;103590;1264;59469;-69
2023/10/14 23:30:23;;;;;;;9.60;4.60;;;;;;;14.30;75.59;99771.88;103756;1267;63309;-70
2023/10/14 23:32:56;;;;;;;9.00;5.10;;;;;;;14.28;75.65;99773.52;104078;1257;58844;-70
2023/10/14 23:35:25;;;;;;;8.30;5.30;;;;;;;14.26;75.90;99770.52;104085;1257;66070;-70
2023/10/14 23:37:54;;;;;;;8.20;5.00;;;;;;;14.25;75.97;99765.52;104016;1264;59362;-68
2023/10/14 23:40:22;;;;;;;8.30;4.70;;;;;;;14.23;76.04;99763.61;104177;1263;59277;-69
2023/10/14 23:43:01;;;;;;;6.80;4.70;;;;;;;14.20;76.21;99761.25;104283;1262;64083;-69
2023/10/14 23:45:31;;;;;;;11.50;5.00;;;;;;;14.19;76.30;99756.98;104104;1257;59765;-70
2023/10/14 23:48:01;;;;;;;10.20;4.90;;;;;;;14.16;76.41;99751.02;104152;1260;63857;-69
2023/10/14 23:50:35;;;;;;;7.50;5.00;;;;;;;14.15;76.48;99750.46;104038;1260;59778;-70
2023/10/14 23:53:08;;;;;;;7.40;4.70;;;;;;;14.14;76.63;99748.13;104172;1257;59658;-69
2023/10/14 23:55:36;;;;;;;8.40;4.80;;;;;;;14.13;76.78;99740.95;104246;1257;64119;-68
2023/10/14 23:58:04;;;;;;;9.70;4.90;;;;;;;14.12;76.88;99738.07;104120;1257;59551;-69
